Time;durP1;ratioP1;P1;durP2;ratioP2;P2;SDS_P1;SDS_P2;PMS_P1;PMS_P2;Temp;Humidity;BMP_temperature;BMP_pressure;BME280_temperature;BME280_humidity;BME280_pressure;Samples;Min_cycle;Max_cycle;Signal;HPM_P1;HPM_P2
2022/01/22 00:00:19;;;;;;;4.30;3.90;;;;;;;-0.77;100.00;97986.22;5007034;28;20304;-57
2022/01/22 00:02:48;;;;;;;3.73;3.43;;;;;;;-0.66;100.00;97982.97;5006235;28;20211;-61
2022/01/22 00:05:18;;;;;;;3.50;3.20;;;;;;;-0.60;100.00;97980.81;5008135;28;20622;-62
2022/01/22 00:07:46;;;;;;;3.87;3.60;;;;;;;-0.62;100.00;97971.44;5003707;28;20207;-56
2022/01/22 00:10:17;;;;;;;3.80;3.50;;;;;;;-0.62;100.00;97959.25;5002544;28;20208;-60
2022/01/22 00:13:07;;;;;;;3.40;3.20;;;;;;;-0.61;100.00;97960.09;5000997;28;20283;-58
2022/01/22 00:15:35;;;;;;;3.80;3.50;;;;;;;-0.75;100.00;97967.00;5004226;28;20316;-58
2022/01/22 00:18:04;;;;;;;3.13;3.00;;;;;;;-0.74;100.00;97963.47;5002120;28;20224;-58
2022/01/22 00:20:33;;;;;;;3.60;3.37;;;;;;;-0.72;100.00;97958.13;5005356;28;20583;-60
2022/01/22 00:23:01;;;;;;;3.17;2.97;;;;;;;-0.70;100.00;97956.28;5005198;28;20834;-58
2022/01/22 00:25:29;;;;;;;3.50;3.30;;;;;;;-0.73;100.00;97959.06;5000475;28;20619;-59
2022/01/22 00:27:57;;;;;;;2.53;2.43;;;;;;;-0.82;100.00;97947.44;5003634;28;20459;-61
2022/01/22 00:30:26;;;;;;;2.80;2.63;;;;;;;-0.73;100.00;97943.47;5005582;28;20212;-60
2022/01/22 00:32:54;;;;;;;2.50;2.40;;;;;;;-0.70;100.00;97945.88;5005235;28;20205;-61
2022/01/22 00:35:23;;;;;;;3.40;3.10;;;;;;;-0.80;100.00;97939.56;5006352;28;20481;-59
2022/01/22 00:37:54;;;;;;;3.47;3.27;;;;;;;-0.79;100.00;97934.25;5002178;28;20205;-62
2022/01/22 00:40:22;;;;;;;3.17;2.97;;;;;;;-0.75;100.00;97938.38;5006479;28;20284;-60
2022/01/22 00:42:51;;;;;;;3.00;2.90;;;;;;;-0.70;100.00;97937.25;5002470;28;20737;-61
2022/01/22 00:45:19;;;;;;;2.63;2.53;;;;;;;-0.69;100.00;97938.91;5000993;28;20222;-60
2022/01/22 00:47:48;;;;;;;2.53;2.40;;;;;;;-0.70;100.00;97935.47;5004184;28;20209;-60
2022/01/22 00:50:21;;;;;;;2.73;2.63;;;;;;;-0.69;100.00;97931.91;5001261;28;20208;-59
2022/01/22 00:52:49;;;;;;;2.53;2.43;;;;;;;-0.62;100.00;97928.00;4998165;28;20197;-60
2022/01/22 00:55:19;;;;;;;2.43;2.33;;;;;;;-0.71;100.00;97923.38;5005681;28;20308;-61
2022/01/22 00:57:47;;;;;;;2.70;2.60;;;;;;;-0.63;100.00;97935.94;5004881;28;20193;-60
2022/01/22 01:00:18;;;;;;;2.20;2.10;;;;;;;-0.69;100.00;97921.50;5007231;28;20229;-57
2022/01/22 01:02:47;;;;;;;2.40;2.30;;;;;;;-0.63;100.00;97915.09;5006486;28;20296;-62
2022/01/22 01:05:16;;;;;;;2.37;2.27;;;;;;;-0.54;100.00;97918.91;5003492;28;22535;-57
2022/01/22 01:07:44;;;;;;;2.47;2.27;;;;;;;-0.55;100.00;97923.25;5002062;28;20232;-57
2022/01/22 01:10:15;;;;;;;2.17;2.07;;;;;;;-0.54;100.00;97914.53;5002134;28;20682;-61
2022/01/22 01:12:45;;;;;;;2.20;2.10;;;;;;;-0.53;100.00;97907.56;5000244;28;20621;-62
2022/01/22 01:15:24;;;;;;;2.33;2.23;;;;;;;-0.57;100.00;97908.66;5000937;28;20710;-59
2022/01/22 01:34:40;;;;;;;2.27;2.17;;;;;;;-0.48;100.00;97901.13;5003277;28;20217;-63
2022/01/22 01:37:08;;;;;;;2.17;2.07;;;;;;;-0.52;100.00;97889.22;5000733;28;20284;-60
2022/01/22 01:39:38;;;;;;;2.50;2.13;;;;;;;-0.51;100.00;97888.28;5000477;28;20251;-57
2022/01/22 01:42:10;;;;;;;2.10;2.00;;;;;;;-0.39;100.00;97899.69;5002174;28;20207;-60
2022/01/22 01:44:40;;;;;;;2.20;2.10;;;;;;;-0.41;100.00;97911.13;4998572;28;20683;-62
2022/01/22 01:47:10;;;;;;;2.57;2.47;;;;;;;-0.39;100.00;97909.28;4997386;28;20207;-60
2022/01/22 01:49:38;;;;;;;2.30;2.20;;;;;;;-0.39;100.00;97914.47;4997234;28;20205;-60
2022/01/22 01:52:11;;;;;;;2.50;2.40;;;;;;;-0.44;100.00;97913.00;5000853;28;20201;-61
2022/01/22 01:54:47;;;;;;;2.30;2.20;;;;;;;-0.37;100.00;97899.63;4999749;28;20945;-57
2022/01/22 01:57:31;;;;;;;2.53;2.43;;;;;;;-0.45;100.00;97898.31;5003575;28;20580;-59
2022/01/22 02:00:01;;;;;;;2.27;2.17;;;;;;;-0.42;100.00;97893.84;4999485;28;20825;-63
2022/01/22 02:02:32;;;;;;;2.37;2.27;;;;;;;-0.36;100.00;97896.91;5000021;28;20292;-59
2022/01/22 02:05:00;;;;;;;2.47;2.37;;;;;;;-0.36;100.00;97896.09;5000855;28;20241;-58
2022/01/22 02:07:28;;;;;;;2.70;2.60;;;;;;;-0.31;100.00;97894.03;5003406;28;20289;-59
2022/01/22 02:09:57;;;;;;;2.57;2.47;;;;;;;-0.23;100.00;97889.16;4995669;28;20209;-57
2022/01/22 02:12:47;;;;;;;2.13;2.03;;;;;;;-0.30;100.00;97880.88;4996993;28;20734;-61
2022/01/22 02:23:36;;;;;;;2.80;2.70;;;;;;;-0.22;100.00;97879.56;5001956;28;20295;-60
2022/01/22 02:26:06;;;;;;;3.00;2.80;;;;;;;-0.23;100.00;97878.72;5002584;28;20253;-62
2022/01/22 02:28:34;;;;;;;3.10;2.90;;;;;;;-0.19;100.00;97887.16;4998074;28;20892;-64
2022/01/22 02:31:10;;;;;;;3.30;3.00;;;;;;;-0.30;100.00;97885.28;5001275;28;20869;-60
2022/01/22 02:33:47;;;;;;;2.57;2.40;;;;;;;-0.16;100.00;97876.56;4998679;28;20212;-60
2022/01/22 02:36:21;;;;;;;2.97;2.87;;;;;;;-0.15;100.00;97880.84;5002937;28;20303;-59
2022/01/22 02:38:56;;;;;;;2.87;2.73;;;;;;;-0.09;100.00;97885.66;4997924;28;20729;-59
2022/01/22 02:41:26;;;;;;;2.47;2.37;;;;;;;-0.10;100.00;97877.94;5002506;28;20210;-60
2022/01/22 02:43:55;;;;;;;2.90;2.80;;;;;;;-0.07;100.00;97878.56;4996948;28;20197;-58
2022/01/22 02:46:26;;;;;;;2.50;2.40;;;;;;;-0.23;100.00;97877.88;5002665;28;20229;-63
2022/01/22 02:48:56;;;;;;;2.43;2.33;;;;;;;-0.11;100.00;97882.31;4995721;28;20644;-59
2022/01/22 02:51:26;;;;;;;2.97;2.87;;;;;;;-0.04;100.00;97883.59;5005723;28;20205;-57
2022/01/22 02:53:56;;;;;;;2.33;2.23;;;;;;;-0.19;100.00;97876.75;5002491;28;20299;-60
2022/01/22 02:56:25;;;;;;;3.40;3.20;;;;;;;-0.10;100.00;97884.00;4999795;28;20225;-59
2022/01/22 02:58:54;;;;;;;2.83;2.63;;;;;;;0.04;100.00;97883.09;5001478;28;20296;-61
2022/01/22 03:01:23;;;;;;;2.90;2.70;;;;;;;-0.18;100.00;97879.25;4998332;28;20221;-60
2022/01/22 03:03:51;;;;;;;2.60;2.50;;;;;;;0.01;100.00;97885.06;5001293;28;20248;-60
2022/01/22 03:06:19;;;;;;;3.03;2.83;;;;;;;-0.08;100.00;97876.91;4999451;28;20313;-61
2022/01/22 03:08:48;;;;;;;2.57;2.37;;;;;;;0.04;100.00;97879.63;4997796;28;20431;-60
2022/01/22 03:11:20;;;;;;;2.23;2.13;;;;;;;-0.09;100.00;97872.63;4998525;28;20201;-59
2022/01/22 03:14:39;;;;;;;3.07;2.87;;;;;;;0.03;100.00;97878.81;4998808;28;20277;-61
2022/01/22 03:17:22;;;;;;;2.57;2.47;;;;;;;0.01;100.00;97882.44;5002428;28;20236;-61
2022/01/22 03:20:03;;;;;;;2.17;2.07;;;;;;;-0.03;100.00;97895.69;4997874;28;20307;-60
2022/01/22 03:22:41;;;;;;;2.63;2.50;;;;;;;0.01;100.00;97888.50;4998584;28;20719;-58
2022/01/22 03:27:57;;;;;;;2.60;2.50;;;;;;;-0.06;100.00;97864.63;5006046;28;20197;-60
2022/01/22 03:30:25;;;;;;;2.70;2.60;;;;;;;-0.04;100.00;97864.50;5003180;28;20202;-58
2022/01/22 03:32:55;;;;;;;2.50;2.40;;;;;;;-0.10;100.00;97868.34;4984417;28;20274;-62
2022/01/22 03:35:33;;;;;;;2.37;2.27;;;;;;;-0.17;100.00;97849.69;5005078;28;20232;-60
2022/01/22 03:38:04;;;;;;;3.03;2.83;;;;;;;-0.06;100.00;97871.56;5000709;28;20737;-56
2022/01/22 03:40:32;;;;;;;2.33;2.23;;;;;;;0.05;100.00;97874.34;5004029;28;20496;-57
2022/01/22 03:43:01;;;;;;;2.60;2.50;;;;;;;-0.01;100.00;97875.56;5000681;28;20201;-56
2022/01/22 03:45:29;;;;;;;2.73;2.53;;;;;;;-0.02;100.00;97879.09;5001270;28;20236;-57
2022/01/22 03:47:57;;;;;;;2.50;2.40;;;;;;;0.01;100.00;97883.28;4999771;28;20288;-60
2022/01/22 03:50:26;;;;;;;2.50;2.40;;;;;;;0.07;100.00;97876.81;5002289;28;20201;-57
2022/01/22 03:52:54;;;;;;;2.33;2.23;;;;;;;-0.01;100.00;97885.13;5006063;28;20305;-60
2022/01/22 03:55:33;;;;;;;2.50;2.40;;;;;;;0.02;100.00;97873.69;5000931;28;20264;-61
2022/01/22 03:58:03;;;;;;;2.50;2.40;;;;;;;-0.01;100.00;97862.53;5003989;28;20714;-55
2022/01/22 04:00:31;;;;;;;2.23;2.13;;;;;;;0.01;100.00;97870.28;5002525;28;21127;-58
2022/01/22 04:03:25;;;;;;;2.10;2.07;;;;;;;0.01;100.00;97862.44;5003330;28;20715;-56
2022/01/22 04:06:11;;;;;;;2.73;2.53;;;;;;;0.14;100.00;97867.66;5000047;28;20231;-58
2022/01/22 04:08:39;;;;;;;2.63;2.53;;;;;;;0.08;100.00;97865.47;5004014;28;20240;-60
2022/01/22 04:11:11;;;;;;;3.00;2.83;;;;;;;0.04;100.00;97866.59;5004473;28;20259;-62
2022/01/22 04:13:42;;;;;;;2.60;2.50;;;;;;;0.05;100.00;97863.06;4999598;28;20311;-58
2022/01/22 04:16:13;;;;;;;2.60;2.40;;;;;;;0.07;100.00;97861.19;5001997;28;21073;-59
2022/01/22 04:27:06;;;;;;;2.13;2.03;;;;;;;0.11;100.00;97860.06;5000919;28;20220;-56
2022/01/22 04:29:35;;;;;;;2.47;2.37;;;;;;;0.04;100.00;97861.41;5007211;28;20288;-61
2022/01/22 04:32:04;;;;;;;2.20;2.10;;;;;;;0.05;100.00;97861.31;5004474;28;20352;-60
2022/01/22 04:34:32;;;;;;;2.43;2.33;;;;;;;0.10;100.00;97856.63;5006491;28;22933;-56
2022/01/22 04:37:01;;;;;;;3.00;2.90;;;;;;;0.01;100.00;97830.34;5004670;28;20284;-54
2022/01/22 04:39:29;;;;;;;3.17;2.90;;;;;;;0.13;100.00;97840.78;5008438;28;20794;-61
2022/01/22 04:41:57;;;;;;;2.60;2.50;;;;;;;0.20;100.00;97845.59;5010000;28;20642;-60
2022/01/22 04:44:30;;;;;;;2.73;2.57;;;;;;;0.13;100.00;97856.41;5010189;28;20204;-60
2022/01/22 04:47:13;;;;;;;2.73;2.53;;;;;;;0.18;100.00;97850.06;5014229;28;20491;-59
2022/01/22 04:52:41;;;;;;;2.67;2.57;;;;;;;0.14;100.00;97850.28;5027381;28;20223;-59
2022/01/22 04:55:09;;;;;;;2.67;2.57;;;;;;;0.20;100.00;97849.03;5029790;28;20220;-61
2022/01/22 04:57:39;;;;;;;2.47;2.37;;;;;;;0.16;100.00;97855.38;5026549;28;20228;-61
2022/01/22 05:00:10;;;;;;;3.20;2.90;;;;;;;0.16;100.00;97829.31;5026214;28;20239;-63
2022/01/22 05:02:40;;;;;;;2.70;2.60;;;;;;;0.16;100.00;97850.16;5021866;28;20555;-57
2022/01/22 05:05:09;;;;;;;2.40;2.30;;;;;;;0.20;100.00;97846.44;5018578;28;20614;-61
2022/01/22 05:07:37;;;;;;;3.23;3.03;;;;;;;0.09;100.00;97834.09;5015365;28;20289;-59
2022/01/22 05:10:06;;;;;;;3.37;3.17;;;;;;;0.17;100.00;97851.81;5021533;28;20291;-60
2022/01/22 05:12:34;;;;;;;2.80;2.70;;;;;;;0.20;100.00;97845.59;5019331;28;20296;-60
2022/01/22 05:15:03;;;;;;;3.42;3.22;;;;;;;0.25;100.00;97849.56;5020160;28;20895;-60
2022/01/22 05:17:34;;;;;;;2.73;2.60;;;;;;;0.16;100.00;97839.72;5017875;28;20290;-60
2022/01/22 05:20:09;;;;;;;3.17;2.97;;;;;;;0.25;100.00;97849.56;5018271;28;20219;-61
2022/01/22 05:22:51;;;;;;;2.77;2.67;;;;;;;0.22;100.00;97851.53;5018895;28;21003;-59
2022/01/22 05:25:22;;;;;;;2.40;2.30;;;;;;;0.29;100.00;97865.81;5021142;28;20299;-60
2022/01/22 05:28:06;;;;;;;2.87;2.67;;;;;;;0.34;100.00;97852.47;5020606;28;20617;-59
2022/01/22 05:36:54;;;;;;;2.60;2.50;;;;;;;0.27;100.00;97867.69;5016770;28;20201;-60
2022/01/22 05:39:04;;;;;;;2.80;2.63;;;;;;;0.33;100.00;97869.06;5017748;28;20704;-56
2022/01/22 05:41:32;;;;;;;2.87;2.67;;;;;;;0.36;100.00;97874.88;5016365;28;20355;-57
2022/01/22 05:44:00;;;;;;;2.30;2.20;;;;;;;0.33;100.00;97877.72;5017953;28;20711;-58
2022/01/22 05:46:28;;;;;;;2.30;2.20;;;;;;;0.34;100.00;97873.34;5017972;28;20220;-59
2022/01/22 05:48:56;;;;;;;2.23;2.13;;;;;;;0.39;100.00;97869.50;5015933;28;20214;-61
2022/01/22 05:51:26;;;;;;;2.37;2.27;;;;;;;0.39;100.00;97876.47;5014307;28;20201;-62
2022/01/22 05:54:18;;;;;;;2.77;2.57;;;;;;;0.32;100.00;97877.81;5016201;28;20200;-57
2022/01/22 05:59:37;;;;;;;2.77;2.57;;;;;;;0.35;100.00;97875.81;4996932;28;20307;-56
2022/01/22 06:02:06;;;;;;;2.30;2.20;;;;;;;0.32;100.00;97868.22;5015980;28;20452;-60
2022/01/22 06:04:35;;;;;;;3.20;3.00;;;;;;;0.41;100.00;97879.81;5016105;28;20628;-59
2022/01/22 06:07:05;;;;;;;2.93;2.73;;;;;;;0.37;100.00;97868.75;5015745;28;20216;-59
2022/01/22 06:09:34;;;;;;;3.07;2.87;;;;;;;0.41;100.00;97891.09;5016324;28;20970;-58
2022/01/22 06:12:15;;;;;;;2.40;2.30;;;;;;;0.35;100.00;97896.69;5017100;28;20212;-59
2022/01/22 06:14:43;;;;;;;2.60;2.50;;;;;;;0.45;100.00;97896.09;5016225;28;20215;-59
2022/01/22 06:17:11;;;;;;;2.50;2.40;;;;;;;0.37;100.00;97897.41;5016473;28;20214;-59
2022/01/22 06:19:39;;;;;;;2.90;2.70;;;;;;;0.41;100.00;97904.13;5019942;28;20200;-57
2022/01/22 06:22:09;;;;;;;3.17;2.97;;;;;;;0.41;100.00;97904.13;5013222;28;20333;-59
2022/01/22 06:24:37;;;;;;;2.43;2.33;;;;;;;0.46;100.00;97913.41;5018274;28;20569;-60
2022/01/22 06:27:05;;;;;;;2.50;2.40;;;;;;;0.44;100.00;97910.88;5014130;28;20605;-57
2022/01/22 06:29:33;;;;;;;2.37;2.27;;;;;;;0.46;100.00;97914.22;5019325;28;20673;-61
2022/01/22 06:32:01;;;;;;;2.70;2.60;;;;;;;0.50;100.00;97920.09;5022793;28;20295;-62
2022/01/22 06:34:29;;;;;;;2.23;2.13;;;;;;;0.51;100.00;97919.16;5021560;28;20205;-59
2022/01/22 06:36:57;;;;;;;2.50;2.40;;;;;;;0.61;100.00;97928.03;5017834;28;20228;-63
2022/01/22 06:39:27;;;;;;;3.27;3.07;;;;;;;0.52;100.00;97923.44;5025328;28;20210;-56
2022/01/22 06:41:54;;;;;;;2.90;2.70;;;;;;;0.61;100.00;97935.84;5022646;28;20690;-60
2022/01/22 06:44:24;;;;;;;2.50;2.40;;;;;;;0.53;100.00;97932.91;5020480;28;20892;-62
2022/01/22 06:46:54;;;;;;;2.20;2.10;;;;;;;0.63;100.00;97935.75;5016774;28;20225;-62
2022/01/22 06:49:22;;;;;;;2.27;2.17;;;;;;;0.68;100.00;97934.50;5019553;28;20200;-63
2022/01/22 06:51:51;;;;;;;2.63;2.43;;;;;;;0.63;100.00;97938.38;5020303;28;20204;-61
2022/01/22 06:54:21;;;;;;;2.20;2.10;;;;;;;0.59;100.00;97936.91;5017245;28;20868;-63
2022/01/22 06:56:50;;;;;;;2.63;2.53;;;;;;;0.65;100.00;97939.09;5018906;28;20307;-63
2022/01/22 06:59:18;;;;;;;2.83;2.73;;;;;;;0.69;100.00;97943.16;5028178;28;20254;-62
2022/01/22 07:01:48;;;;;;;3.57;3.37;;;;;;;0.68;100.00;97939.72;5024214;28;20216;-61
2022/01/22 07:04:17;;;;;;;2.50;2.40;;;;;;;0.67;100.00;97947.66;5022777;28;20241;-62
2022/01/22 07:06:46;;;;;;;2.97;2.77;;;;;;;0.75;100.00;97949.72;5023885;28;20232;-63
2022/01/22 07:09:13;;;;;;;2.90;2.70;;;;;;;0.72;100.00;97959.44;5021248;28;20583;-58
2022/01/22 07:11:41;;;;;;;2.63;2.53;;;;;;;0.79;100.00;97953.81;5023163;28;20196;-61
2022/01/22 07:14:16;;;;;;;3.10;2.90;;;;;;;0.78;100.00;97949.53;5018124;28;20196;-59
2022/01/22 07:16:44;;;;;;;2.60;2.50;;;;;;;0.84;100.00;97968.22;5018986;28;20958;-59
2022/01/22 07:19:17;;;;;;;3.33;3.13;;;;;;;0.79;100.00;97972.91;5020414;28;20204;-61
2022/01/22 07:21:51;;;;;;;2.70;2.50;;;;;;;0.84;100.00;97972.63;5019151;28;20386;-64
2022/01/22 07:24:26;;;;;;;2.73;2.63;;;;;;;0.86;100.00;97971.56;5022564;28;20211;-62
2022/01/22 07:26:54;;;;;;;2.47;2.37;;;;;;;0.85;100.00;97974.28;5021169;28;20561;-66
2022/01/22 07:29:24;;;;;;;2.90;2.70;;;;;;;0.88;100.00;97981.91;5024815;28;20202;-63
2022/01/22 07:31:53;;;;;;;2.53;2.43;;;;;;;0.94;100.00;97988.47;5024511;28;20200;-65
2022/01/22 07:34:21;;;;;;;2.40;2.30;;;;;;;1.05;100.00;97988.59;5028183;28;20217;-64
2022/01/22 07:36:49;;;;;;;2.90;2.70;;;;;;;1.06;100.00;97995.47;5031064;28;20315;-62
2022/01/22 07:39:17;;;;;;;3.07;2.83;;;;;;;1.15;100.00;97988.81;5027716;28;20729;-62
2022/01/22 07:41:46;;;;;;;2.97;2.83;;;;;;;1.08;100.00;97998.81;5029349;28;20358;-63
2022/01/22 07:44:14;;;;;;;2.93;2.83;;;;;;;1.10;100.00;97998.69;5030839;28;20232;-60
2022/01/22 07:46:43;;;;;;;2.60;2.50;;;;;;;1.12;100.00;98005.50;5025178;28;20614;-64
2022/01/22 07:49:11;;;;;;;2.70;2.50;;;;;;;1.04;100.00;98015.63;5028289;28;20197;-60
2022/01/22 07:51:39;;;;;;;2.97;2.73;;;;;;;1.14;100.00;98011.44;5028723;28;20401;-66
2022/01/22 07:54:07;;;;;;;2.93;2.80;;;;;;;1.12;100.00;98010.72;5023939;28;20201;-65
2022/01/22 07:56:35;;;;;;;3.13;2.90;;;;;;;1.12;100.00;98021.16;5022511;28;20229;-64
2022/01/22 07:59:04;;;;;;;2.80;2.60;;;;;;;1.19;100.00;98015.53;5027077;28;20212;-64
2022/01/22 08:01:32;;;;;;;2.47;2.37;;;;;;;1.27;100.00;98010.59;5025786;28;20323;-65
2022/01/22 08:04:01;;;;;;;2.67;2.57;;;;;;;1.26;100.00;98016.78;5024183;28;20224;-66
2022/01/22 08:06:29;;;;;;;2.80;2.70;;;;;;;1.10;100.00;98010.00;5023100;28;20232;-61
2022/01/22 08:08:57;;;;;;;2.93;2.73;;;;;;;1.26;100.00;98017.63;5028681;28;20211;-61
2022/01/22 08:11:25;;;;;;;2.90;2.70;;;;;;;1.28;100.00;98012.28;5025744;28;20883;-63
2022/01/22 08:13:53;;;;;;;3.07;2.97;;;;;;;1.24;100.00;98018.66;5024885;28;20197;-65
2022/01/22 08:16:21;;;;;;;2.80;2.70;;;;;;;1.29;100.00;98024.41;5021638;28;20346;-63
2022/01/22 08:18:49;;;;;;;2.97;2.80;;;;;;;1.30;100.00;98026.06;5022898;28;20203;-65
2022/01/22 08:21:19;;;;;;;3.00;2.80;;;;;;;1.54;100.00;98025.31;5024677;28;20284;-67
2022/01/22 08:23:47;;;;;;;2.80;2.70;;;;;;;1.50;100.00;98029.91;5024311;28;20311;-61
2022/01/22 08:26:18;;;;;;;3.00;2.90;;;;;;;1.50;100.00;98042.97;5024993;28;20232;-64
2022/01/22 08:28:59;;;;;;;2.50;2.40;;;;;;;1.58;100.00;98037.22;5022412;28;20204;-63
2022/01/22 08:31:43;;;;;;;2.80;2.70;;;;;;;1.52;100.00;98048.13;5018369;28;20287;-62
2022/01/22 08:36:57;;;;;;;2.60;2.50;;;;;;;1.70;100.00;98051.22;5024030;28;20216;-64
2022/01/22 08:39:26;;;;;;;2.50;2.40;;;;;;;1.71;100.00;98055.50;5017001;28;20595;-64
2022/01/22 08:41:55;;;;;;;2.87;2.67;;;;;;;1.78;100.00;98051.53;5025427;28;20204;-66
2022/01/22 08:44:23;;;;;;;2.50;2.40;;;;;;;1.70;100.00;98059.88;5021978;28;20205;-67
2022/01/22 08:46:51;;;;;;;3.10;2.90;;;;;;;1.64;100.00;98056.88;5024651;28;20721;-66
2022/01/22 08:49:19;;;;;;;3.17;2.97;;;;;;;1.62;100.00;98066.59;5018588;28;20295;-66
2022/01/22 08:51:47;;;;;;;2.40;2.30;;;;;;;1.55;100.00;98069.66;5019454;28;20549;-64
2022/01/22 08:54:17;;;;;;;2.73;2.63;;;;;;;1.71;100.00;98071.19;5024272;28;20297;-67
2022/01/22 08:56:45;;;;;;;2.10;2.00;;;;;;;1.73;100.00;98072.78;5021321;28;20226;-63
2022/01/22 08:59:13;;;;;;;2.70;2.60;;;;;;;1.79;100.00;98079.31;5023200;28;20235;-60
2022/01/22 09:01:42;;;;;;;2.37;2.27;;;;;;;1.71;100.00;98072.03;5024266;28;20296;-65
2022/01/22 09:04:10;;;;;;;2.73;2.63;;;;;;;1.72;100.00;98080.69;5023280;28;20238;-66
2022/01/22 09:06:38;;;;;;;2.13;2.03;;;;;;;1.73;100.00;98085.84;5017328;28;20595;-65
2022/01/22 09:09:10;;;;;;;2.20;2.10;;;;;;;1.73;100.00;98082.38;5019517;28;20204;-65
2022/01/22 09:11:41;;;;;;;2.10;2.00;;;;;;;1.82;100.00;98097.41;5021864;28;20275;-63
2022/01/22 09:14:12;;;;;;;2.60;2.50;;;;;;;1.92;100.00;98104.63;5016044;28;20200;-64
2022/01/22 09:16:41;;;;;;;2.53;2.33;;;;;;;1.92;100.00;98107.25;5017231;28;20293;-65
2022/01/22 09:19:11;;;;;;;2.30;2.03;;;;;;;2.01;100.00;98117.88;5019535;28;20212;-63
2022/01/22 09:21:41;;;;;;;2.87;2.77;;;;;;;1.94;100.00;98129.69;5018690;28;20275;-65
2022/01/22 09:24:10;;;;;;;2.40;2.30;;;;;;;1.96;100.00;98124.38;5020096;28;20529;-65
2022/01/22 09:26:39;;;;;;;3.30;3.10;;;;;;;1.92;100.00;98133.38;5020062;28;20231;-63
2022/01/22 09:29:07;;;;;;;2.53;2.43;;;;;;;2.02;100.00;98129.19;5022612;28;20204;-65
2022/01/22 09:31:35;;;;;;;2.70;2.60;;;;;;;1.98;100.00;98138.19;5022049;28;20662;-65
2022/01/22 09:34:04;;;;;;;2.53;2.43;;;;;;;2.01;100.00;98130.94;5020337;28;20215;-64
2022/01/22 09:36:33;;;;;;;3.20;3.00;;;;;;;2.10;100.00;98131.28;5022131;28;20766;-65
2022/01/22 09:39:01;;;;;;;2.60;2.50;;;;;;;2.02;100.00;98135.22;5017890;28;20283;-63
2022/01/22 09:41:29;;;;;;;2.67;2.57;;;;;;;2.10;100.00;98146.97;5022139;28;20196;-65
2022/01/22 09:43:58;;;;;;;2.80;2.70;;;;;;;2.00;100.00;98147.56;5016049;28;21456;-62
2022/01/22 09:46:28;;;;;;;2.50;2.40;;;;;;;2.15;100.00;98145.69;5018260;28;20229;-63
2022/01/22 09:48:57;;;;;;;2.70;2.60;;;;;;;2.14;100.00;98143.19;5020506;28;20208;-63
2022/01/22 09:51:25;;;;;;;2.90;2.70;;;;;;;2.12;100.00;98145.88;5018961;28;20225;-63
2022/01/22 09:53:53;;;;;;;3.10;2.90;;;;;;;2.04;100.00;98150.81;5021529;28;20228;-65
2022/01/22 09:56:24;;;;;;;3.33;2.63;;;;;;;2.20;100.00;98147.13;5020095;28;20432;-63
2022/01/22 09:58:52;;;;;;;3.03;2.83;;;;;;;2.26;100.00;98155.41;5018660;28;20296;-66
2022/01/22 10:01:26;;;;;;;3.43;3.20;;;;;;;2.18;100.00;98160.31;5021264;28;20218;-65
2022/01/22 10:03:58;;;;;;;3.40;3.20;;;;;;;2.01;100.00;98162.31;5022856;28;20228;-66
2022/01/22 10:06:28;;;;;;;3.03;2.77;;;;;;;2.02;100.00;98165.78;5017926;28;20267;-64
2022/01/22 10:09:06;;;;;;;3.17;2.97;;;;;;;2.06;100.00;98161.16;5021403;28;20208;-63
2022/01/22 10:11:35;;;;;;;3.03;2.83;;;;;;;2.14;100.00;98158.88;5022445;28;20208;-67
2022/01/22 10:14:04;;;;;;;3.20;3.00;;;;;;;2.22;100.00;98150.47;5018981;28;20200;-65
2022/01/22 10:16:35;;;;;;;3.20;3.00;;;;;;;2.24;100.00;98157.28;5014517;28;20226;-65
2022/01/22 10:19:13;;;;;;;3.07;2.90;;;;;;;2.43;100.00;98155.97;5020521;28;20208;-62
2022/01/22 10:21:43;;;;;;;3.30;3.10;;;;;;;2.39;100.00;98162.38;5018703;28;20230;-61
2022/01/22 10:24:32;;;;;;;2.93;2.77;;;;;;;2.35;100.00;98161.75;5020642;28;20300;-63
2022/01/22 10:27:19;;;;;;;2.40;2.30;;;;;;;2.44;100.00;98173.34;5015866;28;20300;-64
2022/01/22 10:29:51;;;;;;;2.47;2.37;;;;;;;2.29;100.00;98157.78;5017732;28;20212;-64
2022/01/22 10:32:25;;;;;;;2.67;2.57;;;;;;;2.51;100.00;98164.13;5013261;28;20291;-62
2022/01/22 10:35:06;;;;;;;3.30;3.10;;;;;;;2.38;100.00;98161.56;5018301;28;20323;-65
2022/01/22 10:37:35;;;;;;;2.53;2.43;;;;;;;2.57;100.00;98155.00;5020381;28;20211;-62
2022/01/22 10:40:25;;;;;;;2.87;2.67;;;;;;;2.59;100.00;98148.72;5017694;28;20201;-63
2022/01/22 10:43:10;;;;;;;2.57;2.47;;;;;;;2.57;100.00;98150.63;5018115;28;20236;-62
2022/01/22 10:45:41;;;;;;;2.97;2.77;;;;;;;2.66;100.00;98148.28;5019218;28;20232;-59
2022/01/22 10:48:20;;;;;;;2.87;2.67;;;;;;;2.64;100.00;98142.31;5016687;28;20836;-63
2022/01/22 10:51:00;;;;;;;3.10;2.90;;;;;;;2.70;100.00;98139.25;5014300;28;20741;-61
2022/01/22 10:53:49;;;;;;;3.03;2.83;;;;;;;2.83;100.00;98150.50;5018103;28;20787;-61
2022/01/22 10:56:19;;;;;;;2.73;2.60;;;;;;;2.98;100.00;98145.94;5017843;28;20785;-65
2022/01/22 10:58:58;;;;;;;1.97;1.90;;;;;;;2.81;100.00;98152.41;5021421;28;20204;-63
2022/01/22 11:01:28;;;;;;;2.63;2.53;;;;;;;2.87;100.00;98157.22;5017976;28;20210;-63
2022/01/22 11:04:07;;;;;;;2.30;2.20;;;;;;;2.73;100.00;98166.06;5023254;28;20765;-65
2022/01/22 11:06:35;;;;;;;2.83;2.70;;;;;;;2.77;100.00;98161.41;5019585;28;20594;-64
2022/01/22 11:09:05;;;;;;;2.27;2.17;;;;;;;2.61;100.00;98172.16;5018238;28;20308;-63
2022/01/22 11:11:36;;;;;;;3.00;2.87;;;;;;;2.42;100.00;98170.84;5019297;28;20641;-62
2022/01/22 11:14:06;;;;;;;3.47;3.27;;;;;;;2.28;100.00;98171.81;5017149;28;20633;-62
2022/01/22 11:16:34;;;;;;;3.63;3.00;;;;;;;2.19;100.00;98175.06;5019935;28;20259;-62
2022/01/22 11:19:17;;;;;;;3.70;3.37;;;;;;;2.19;100.00;98176.84;5019055;28;20200;-60
2022/01/22 11:21:47;;;;;;;3.03;2.93;;;;;;;2.14;100.00;98179.78;5019536;28;20196;-60
2022/01/22 11:24:18;;;;;;;3.60;3.40;;;;;;;2.11;100.00;98180.00;5018961;28;20223;-62
2022/01/22 11:26:50;;;;;;;3.80;3.60;;;;;;;2.17;100.00;98167.31;5023360;28;20360;-63
2022/01/22 11:29:19;;;;;;;3.63;3.43;;;;;;;2.06;100.00;98172.47;5022139;28;20203;-62
2022/01/22 11:31:48;;;;;;;3.90;3.70;;;;;;;2.07;100.00;98171.53;5018641;28;20220;-63
2022/01/22 11:34:18;;;;;;;3.33;3.13;;;;;;;2.10;100.00;98163.47;5024430;28;20224;-64
2022/01/22 11:36:54;;;;;;;3.97;3.67;;;;;;;2.24;100.00;98167.75;5025006;28;20234;-65
2022/01/22 11:39:24;;;;;;;3.73;3.53;;;;;;;2.11;100.00;98177.38;5023459;28;20701;-61
2022/01/22 11:41:54;;;;;;;4.23;3.83;;;;;;;2.30;100.00;98169.91;5020983;28;20209;-61
2022/01/22 11:44:27;;;;;;;3.97;3.67;;;;;;;2.36;100.00;98175.66;5023604;28;20689;-62
2022/01/22 11:47:08;;;;;;;3.67;3.47;;;;;;;2.28;100.00;98177.03;5025210;28;20227;-64
2022/01/22 11:49:38;;;;;;;4.17;3.87;;;;;;;2.30;100.00;98174.34;5026084;28;20216;-63
2022/01/22 11:52:30;;;;;;;4.17;3.87;;;;;;;2.10;100.00;98179.16;5029386;28;20208;-63
2022/01/22 11:55:00;;;;;;;4.30;4.00;;;;;;;2.16;100.00;98181.34;5028884;28;20666;-62
2022/01/22 11:57:29;;;;;;;3.57;3.37;;;;;;;2.14;100.00;98187.63;5028228;28;20284;-59
2022/01/22 12:00:19;;;;;;;4.00;3.80;;;;;;;2.09;100.00;98184.50;5027625;28;20208;-65
2022/01/22 12:03:20;;;;;;;4.50;4.20;;;;;;;2.09;100.00;98202.81;5028930;28;20210;-61
2022/01/22 12:06:10;;;;;;;4.20;3.90;;;;;;;2.01;100.00;98183.22;5026518;28;20235;-61
2022/01/22 12:09:03;;;;;;;4.47;4.17;;;;;;;1.89;100.00;98176.22;5027477;28;20227;-64
2022/01/22 12:14:53;;;;;;;4.97;4.60;;;;;;;2.02;100.00;98184.06;5026468;28;20208;-64
2022/01/22 12:17:58;;;;;;;3.67;3.47;;;;;;;1.96;100.00;98180.09;5027834;28;20259;-64
2022/01/22 12:23:55;;;;;;;4.63;4.30;;;;;;;1.90;100.00;98182.31;5028560;28;20204;-66
2022/01/22 12:26:47;;;;;;;5.23;4.93;;;;;;;2.02;100.00;98184.91;5028635;28;20255;-58
2022/01/22 12:29:45;;;;;;;4.70;4.30;;;;;;;2.06;100.00;98193.38;5027021;28;20793;-65
2022/01/22 12:32:20;;;;;;;4.23;3.93;;;;;;;1.96;100.00;98192.34;5026375;28;20205;-63
2022/01/22 12:34:55;;;;;;;4.50;4.20;;;;;;;1.92;100.00;98176.03;5030205;28;20733;-65
2022/01/22 12:37:23;;;;;;;4.03;3.77;;;;;;;2.09;100.00;98181.88;5027687;28;20282;-64
2022/01/22 12:39:55;;;;;;;4.73;4.33;;;;;;;2.05;100.00;98194.31;5028678;28;20280;-64
2022/01/22 12:42:33;;;;;;;4.80;4.40;;;;;;;2.01;100.00;98188.47;5028155;28;20902;-64
2022/01/22 12:45:07;;;;;;;5.03;4.60;;;;;;;2.11;100.00;98193.91;5033029;28;20230;-60
2022/01/22 12:47:36;;;;;;;3.87;3.67;;;;;;;2.08;100.00;98195.88;5026618;28;20331;-66
2022/01/22 12:50:06;;;;;;;4.30;3.90;;;;;;;1.98;100.00;98191.28;5026520;28;20200;-61